createdAt,value
2019-05-15T00:00:18.697Z,7.95
2019-05-15T00:01:19.278Z,8.03
2019-05-15T00:02:18.701Z,8.00
2019-05-15T00:03:19.686Z,7.96
2019-05-15T00:04:18.787Z,7.95
2019-05-15T00:05:18.948Z,7.95
2019-05-15T00:06:19.162Z,7.94
2019-05-15T00:07:18.620Z,7.88
2019-05-15T00:08:18.658Z,7.82
2019-05-15T00:09:19.249Z,7.79
2019-05-15T00:10:18.697Z,7.85
2019-05-15T00:11:19.185Z,7.86
2019-05-15T00:12:19.004Z,7.74
2019-05-15T00:13:18.636Z,7.73
2019-05-15T00:14:18.601Z,7.67
2019-05-15T00:15:18.522Z,7.66
2019-05-15T00:16:18.601Z,7.62
2019-05-15T00:17:19.132Z,7.58
2019-05-15T00:18:18.715Z,7.55
2019-05-15T00:19:18.896Z,7.66
2019-05-15T00:20:20.270Z,7.54
2019-05-15T00:21:18.454Z,7.51
2019-05-15T00:22:18.574Z,7.44
2019-05-15T00:23:18.431Z,7.52
2019-05-15T00:24:18.451Z,7.48
2019-05-15T00:25:18.946Z,7.47
2019-05-15T00:26:18.490Z,7.48
2019-05-15T00:27:20.231Z,7.55
2019-05-15T00:28:18.620Z,7.36
2019-05-15T00:29:19.730Z,7.50
2019-05-15T00:31:19.485Z,7.39
2019-05-15T00:33:19.500Z,7.36
2019-05-15T00:34:18.438Z,7.41
2019-05-15T00:35:18.565Z,7.33
2019-05-15T00:36:19.201Z,7.34
2019-05-15T00:37:18.390Z,7.33
2019-05-15T00:38:18.757Z,7.33
2019-05-15T00:39:18.983Z,7.29
2019-05-15T00:40:18.525Z,7.24
2019-05-15T00:41:18.580Z,7.19
2019-05-15T00:42:18.999Z,7.19
2019-05-15T00:43:18.418Z,7.19
2019-05-15T00:44:18.761Z,7.19
2019-05-15T00:45:18.612Z,7.23
2019-05-15T00:46:18.429Z,7.23
2019-05-15T00:47:18.227Z,7.14
2019-05-15T00:48:18.452Z,7.11
2019-05-15T00:49:18.929Z,7.12
2019-05-15T00:50:18.420Z,7.07
2019-05-15T00:51:19.594Z,7.15
2019-05-15T00:52:18.179Z,7.09
2019-05-15T00:53:19.621Z,7.14
2019-05-15T00:54:19.196Z,7.12
2019-05-15T00:55:19.063Z,7.12
2019-05-15T00:56:19.526Z,7.01
2019-05-15T00:57:19.184Z,6.96
2019-05-15T00:58:20.056Z,6.97
2019-05-15T00:59:26.285Z,6.89
2019-05-15T01:00:18.992Z,6.89
2019-05-15T01:01:19.286Z,6.82
2019-05-15T01:02:17.999Z,6.76
2019-05-15T01:03:18.332Z,6.75
2019-05-15T01:04:18.781Z,6.73
2019-05-15T01:05:18.623Z,6.76
2019-05-15T01:06:19.040Z,6.73
2019-05-15T01:07:18.821Z,6.63
2019-05-15T01:08:19.244Z,6.71
2019-05-15T01:09:18.697Z,6.73
2019-05-15T01:10:19.355Z,6.63
2019-05-15T01:11:19.191Z,6.69
2019-05-15T01:12:18.500Z,6.57
2019-05-15T01:13:19.025Z,6.64
2019-05-15T01:14:18.615Z,6.58
2019-05-15T01:15:18.399Z,6.60
2019-05-15T01:16:18.664Z,6.63
2019-05-15T01:17:18.475Z,6.63
2019-05-15T01:18:18.722Z,6.58
2019-05-15T01:19:18.555Z,6.53
2019-05-15T01:20:18.936Z,6.45
2019-05-15T01:21:18.774Z,6.43
2019-05-15T01:22:19.506Z,6.45
2019-05-15T01:23:18.772Z,6.45
2019-05-15T01:24:18.874Z,6.32
2019-05-15T01:25:18.632Z,6.30
2019-05-15T01:26:18.905Z,6.21
2019-05-15T01:27:18.432Z,6.25
2019-05-15T01:28:18.359Z,6.14
2019-05-15T01:29:18.240Z,6.08
2019-05-15T01:30:18.009Z,6.06
2019-05-15T01:31:19.029Z,6.02
2019-05-15T01:32:19.081Z,5.92
2019-05-15T01:33:19.030Z,5.93
2019-05-15T01:34:18.497Z,5.84
2019-05-15T01:35:18.096Z,5.75
2019-05-15T01:36:19.298Z,5.74
2019-05-15T01:37:18.910Z,5.78
2019-05-15T01:38:18.738Z,5.74
2019-05-15T01:39:18.462Z,5.74
2019-05-15T01:40:18.267Z,5.60
2019-05-15T01:41:18.971Z,5.62
2019-05-15T01:42:18.601Z,5.60
2019-05-15T01:43:18.663Z,5.49
2019-05-15T01:44:17.950Z,5.52
2019-05-15T01:45:18.931Z,5.51
2019-05-15T01:46:19.073Z,5.49
2019-05-15T01:47:18.982Z,5.45
2019-05-15T01:48:18.978Z,5.47
2019-05-15T01:49:18.643Z,5.38
2019-05-15T01:50:18.531Z,5.41
2019-05-15T01:51:18.497Z,5.37
2019-05-15T01:52:18.713Z,5.40
2019-05-15T01:53:18.728Z,5.37
2019-05-15T01:54:18.698Z,5.30
2019-05-15T01:55:18.174Z,5.35
2019-05-15T01:56:18.753Z,5.29
2019-05-15T01:57:18.182Z,5.27
2019-05-15T01:58:18.605Z,5.27
2019-05-15T01:59:18.938Z,5.32
2019-05-15T02:00:18.861Z,5.27
2019-05-15T02:01:19.115Z,5.24
2019-05-15T02:02:18.743Z,5.22
2019-05-15T02:03:18.438Z,5.19
2019-05-15T02:04:19.688Z,5.19
2019-05-15T02:05:18.793Z,5.22
2019-05-15T02:06:18.939Z,5.22
2019-05-15T02:07:18.714Z,5.17
2019-05-15T02:08:19.158Z,5.15
2019-05-15T02:09:18.577Z,5.14
2019-05-15T02:10:18.637Z,5.19
2019-05-15T02:11:18.070Z,5.14
2019-05-15T02:12:19.089Z,5.14
2019-05-15T02:13:18.692Z,5.19
2019-05-15T02:14:18.966Z,5.08
2019-05-15T02:15:18.989Z,5.09
2019-05-15T02:16:19.177Z,5.12
2019-05-15T02:17:18.980Z,5.08
2019-05-15T02:18:19.199Z,5.02
2019-05-15T02:19:19.241Z,5.11
2019-05-15T02:20:18.740Z,5.15
2019-05-15T02:21:18.324Z,5.20
2019-05-15T02:22:18.937Z,5.14
2019-05-15T02:23:18.937Z,5.19
2019-05-15T02:24:18.920Z,5.05
2019-05-15T02:25:18.543Z,5.08
2019-05-15T02:26:18.892Z,5.17
2019-05-15T02:27:18.705Z,5.09
2019-05-15T02:28:18.354Z,5.09
2019-05-15T02:29:20.369Z,5.04
2019-05-15T02:30:28.323Z,5.06
2019-05-15T02:31:19.633Z,5.05
2019-05-15T02:32:19.282Z,5.05
2019-05-15T02:33:18.904Z,4.97
2019-05-15T02:34:19.451Z,5.02
2019-05-15T02:35:18.534Z,4.99
2019-05-15T02:36:20.235Z,5.04
2019-05-15T02:37:19.216Z,4.97
2019-05-15T02:38:20.016Z,4.99
2019-05-15T02:39:18.937Z,4.96
2019-05-15T02:40:19.152Z,4.90
2019-05-15T02:41:19.527Z,4.93
2019-05-15T02:42:19.255Z,4.88
2019-05-15T02:43:19.065Z,4.90
2019-05-15T02:44:19.760Z,4.90
2019-05-15T02:45:19.514Z,4.91
2019-05-15T02:46:19.477Z,4.93
2019-05-15T02:47:19.689Z,4.90
2019-05-15T02:48:19.963Z,4.88
2019-05-15T02:49:19.196Z,4.86
2019-05-15T02:50:20.222Z,4.84
2019-05-15T02:51:19.426Z,4.77
2019-05-15T02:52:19.623Z,4.75
2019-05-15T02:53:18.940Z,4.75
2019-05-15T02:54:19.672Z,4.67
2019-05-15T02:55:19.553Z,4.68
2019-05-15T02:56:20.034Z,4.74
2019-05-15T02:57:19.234Z,4.61
2019-05-15T02:58:21.108Z,4.62
2019-05-15T02:59:19.502Z,4.62
2019-05-15T03:00:32.714Z,4.65
2019-05-15T03:01:18.907Z,4.64
2019-05-15T03:02:19.091Z,4.56
2019-05-15T03:03:16.705Z,4.49
2019-05-15T03:04:19.680Z,4.53
2019-05-15T03:05:19.584Z,4.42
2019-05-15T03:06:19.238Z,4.50
2019-05-15T03:07:19.347Z,4.42
2019-05-15T03:08:19.631Z,4.44
2019-05-15T03:09:18.804Z,4.43
2019-05-15T03:10:19.723Z,4.38
2019-05-15T03:11:19.006Z,4.31
2019-05-15T03:12:19.578Z,4.34
2019-05-15T03:13:18.856Z,4.31
2019-05-15T03:14:16.558Z,4.29
2019-05-15T03:16:19.322Z,4.29
2019-05-15T03:18:19.495Z,4.21
2019-05-15T03:20:18.669Z,4.17
2019-05-15T03:21:18.800Z,4.14
2019-05-15T03:22:19.363Z,4.16
2019-05-15T03:23:19.764Z,4.06
2019-05-15T03:24:19.205Z,4.06
2019-05-15T03:26:19.769Z,4.04
2019-05-15T03:28:19.051Z,3.99
2019-05-15T03:30:21.813Z,3.92
2019-05-15T03:31:35.197Z,3.95
2019-05-15T03:32:33.446Z,3.93
2019-05-15T03:33:20.860Z,3.92
2019-05-15T03:34:23.198Z,3.82
2019-05-15T03:35:22.004Z,3.84
2019-05-15T03:36:23.091Z,3.82
2019-05-15T03:37:22.156Z,3.90
2019-05-15T03:38:19.346Z,3.84
2019-05-15T03:39:18.942Z,3.77
2019-05-15T03:41:19.468Z,3.74
2019-05-15T03:42:19.122Z,3.82
2019-05-15T03:43:18.596Z,3.80
2019-05-15T03:45:19.295Z,3.80
2019-05-15T03:47:19.446Z,3.74
2019-05-15T03:49:19.715Z,3.68
2019-05-15T03:51:19.894Z,3.62
2019-05-15T03:52:19.023Z,3.72
2019-05-15T03:53:18.945Z,3.64
2019-05-15T03:54:19.211Z,3.68
2019-05-15T03:55:18.586Z,3.74
2019-05-15T03:56:19.053Z,3.71
2019-05-15T03:57:20.078Z,3.64
2019-05-15T03:59:19.232Z,3.62
2019-05-15T04:00:19.480Z,3.57
2019-05-15T04:01:30.171Z,3.67
2019-05-15T04:02:19.355Z,3.64
2019-05-15T04:03:20.260Z,3.62
2019-05-15T04:04:18.854Z,3.62
2019-05-15T04:05:19.896Z,3.59
2019-05-15T04:06:19.050Z,3.70
2019-05-15T04:07:19.011Z,3.64
2019-05-15T04:08:19.173Z,3.59
2019-05-15T04:09:19.051Z,3.68
2019-05-15T04:10:15.936Z,3.72
2019-05-15T04:11:20.351Z,3.70
2019-05-15T04:12:15.955Z,3.63
2019-05-15T04:13:19.895Z,3.63
2019-05-15T04:14:19.148Z,3.71
2019-05-15T04:16:19.066Z,3.75
2019-05-15T04:18:19.758Z,3.72
2019-05-15T04:20:19.880Z,3.72
2019-05-15T04:22:19.513Z,3.78
2019-05-15T04:23:19.227Z,3.70
2019-05-15T04:24:18.824Z,3.77
2019-05-15T04:26:19.360Z,3.81
2019-05-15T04:27:20.308Z,3.82
2019-05-15T04:28:19.115Z,3.78
2019-05-15T04:29:19.758Z,3.88
2019-05-15T04:30:18.791Z,3.78
2019-05-15T04:31:19.641Z,3.77
2019-05-15T04:32:15.720Z,3.82
2019-05-15T04:33:19.965Z,3.82
2019-05-15T04:34:15.753Z,3.88
2019-05-15T04:37:18.867Z,3.96
2019-05-15T04:38:19.608Z,3.90
2019-05-15T04:39:19.062Z,3.96
2019-05-15T04:40:15.734Z,4.02
2019-05-15T04:41:15.599Z,3.99
2019-05-15T04:42:15.643Z,4.06
2019-05-15T04:43:15.589Z,3.98
2019-05-15T04:44:15.695Z,4.16
2019-05-15T04:45:15.562Z,4.29
2019-05-15T04:46:19.354Z,4.21
2019-05-15T04:47:15.534Z,4.29
2019-05-15T04:48:15.621Z,4.34
2019-05-15T04:49:15.571Z,4.36
2019-05-15T04:50:15.598Z,4.31
2019-05-15T04:51:15.486Z,4.38
2019-05-15T04:52:15.511Z,4.50
2019-05-15T04:53:19.049Z,4.50
2019-05-15T04:54:15.558Z,4.46
2019-05-15T04:55:15.444Z,4.53
2019-05-15T04:56:15.535Z,4.64
2019-05-15T04:57:15.436Z,4.68
2019-05-15T04:59:19.509Z,4.77
2019-05-15T05:00:15.468Z,4.84
2019-05-15T05:01:15.400Z,4.93
2019-05-15T05:02:19.523Z,4.94
2019-05-15T05:03:19.370Z,5.04
2019-05-15T05:04:15.542Z,5.09
2019-05-15T05:05:15.333Z,5.20
2019-05-15T05:06:18.794Z,5.24
2019-05-15T05:07:15.323Z,5.30
2019-05-15T05:08:15.426Z,5.32
2019-05-15T05:09:15.343Z,5.41
2019-05-15T05:10:15.341Z,5.47
2019-05-15T05:11:15.284Z,5.47
2019-05-15T05:12:15.344Z,5.48
2019-05-15T05:13:15.270Z,5.62
2019-05-15T05:14:15.395Z,5.62
2019-05-15T05:15:15.278Z,5.70
2019-05-15T05:16:15.281Z,5.83
2019-05-15T05:17:15.246Z,5.83
2019-05-15T05:18:15.286Z,5.96
2019-05-15T05:19:15.202Z,5.98
2019-05-15T05:20:15.327Z,6.06
2019-05-15T05:21:15.174Z,6.11
2019-05-15T05:22:15.157Z,6.17
2019-05-15T05:23:15.153Z,6.19
2019-05-15T05:24:15.247Z,6.27
2019-05-15T05:25:15.179Z,6.28
2019-05-15T05:26:15.117Z,6.48
2019-05-15T05:27:15.107Z,6.51
2019-05-15T05:28:15.152Z,6.64
2019-05-15T05:29:15.072Z,6.65
2019-05-15T05:30:15.188Z,6.71
2019-05-15T05:31:15.067Z,6.82
2019-05-15T05:32:30.500Z,6.81
2019-05-15T05:33:17.865Z,6.90
2019-05-15T05:34:15.093Z,7.01
2019-05-15T05:35:15.045Z,6.97
2019-05-15T05:36:15.125Z,7.04
2019-05-15T05:37:15.031Z,7.08
2019-05-15T05:38:15.024Z,7.11
2019-05-15T05:39:17.661Z,7.16
2019-05-15T05:40:18.806Z,7.19
2019-05-15T05:41:14.947Z,7.29
2019-05-15T05:42:15.044Z,7.33
2019-05-15T05:43:14.929Z,7.37
2019-05-15T05:44:14.990Z,7.45
2019-05-15T05:45:14.949Z,7.47
2019-05-15T05:46:15.413Z,7.52
2019-05-15T05:47:14.882Z,7.51
2019-05-15T05:48:14.990Z,7.62
2019-05-15T05:49:14.862Z,7.71
2019-05-15T05:50:14.927Z,7.77
2019-05-15T05:51:14.871Z,7.76
2019-05-15T05:52:14.923Z,7.76
2019-05-15T05:53:14.820Z,7.84
2019-05-15T05:54:14.924Z,7.92
2019-05-15T05:55:14.794Z,8.02
2019-05-15T05:56:14.859Z,8.04
2019-05-15T05:57:14.775Z,8.10
2019-05-15T05:58:14.776Z,8.21
2019-05-15T05:59:14.761Z,8.27
2019-05-15T06:00:14.864Z,8.31
2019-05-15T06:01:14.771Z,8.27
2019-05-15T06:02:14.766Z,8.37
2019-05-15T06:03:14.712Z,8.42
2019-05-15T06:04:14.740Z,8.45
2019-05-15T06:05:14.714Z,8.43
2019-05-15T06:06:14.718Z,8.40
2019-05-15T06:07:14.715Z,8.58
2019-05-15T06:08:14.666Z,8.60
2019-05-15T06:09:14.667Z,8.61
2019-05-15T06:10:14.653Z,8.58
2019-05-15T06:11:14.646Z,8.65
2019-05-15T06:12:14.615Z,8.65
2019-05-15T06:13:14.598Z,8.70
2019-05-15T06:14:14.640Z,8.67
2019-05-15T06:15:14.598Z,8.78
2019-05-15T06:16:14.703Z,8.76
2019-05-15T06:17:14.582Z,8.80
2019-05-15T06:18:14.576Z,8.80
2019-05-15T06:19:14.538Z,8.83
2019-05-15T06:20:14.550Z,8.91
2019-05-15T06:21:14.511Z,8.98
2019-05-15T06:22:14.546Z,9.00
2019-05-15T06:23:14.502Z,9.08
2019-05-15T06:24:14.498Z,9.10
2019-05-15T06:25:14.473Z,9.20
2019-05-15T06:26:14.478Z,9.20
2019-05-15T06:27:14.462Z,9.22
2019-05-15T06:28:14.466Z,9.27
2019-05-15T06:29:14.435Z,9.24
2019-05-15T06:30:19.983Z,9.40
2019-05-15T06:31:15.402Z,9.37
2019-05-15T06:32:14.714Z,9.35
2019-05-15T06:33:14.402Z,9.37
2019-05-15T06:34:14.399Z,9.41
2019-05-15T06:35:14.367Z,9.37
2019-05-15T06:36:14.358Z,9.50
2019-05-15T06:37:14.368Z,9.53
2019-05-15T06:38:14.338Z,9.53
2019-05-15T06:39:14.325Z,9.59
2019-05-15T06:40:14.316Z,9.65
2019-05-15T06:41:14.313Z,9.60
2019-05-15T06:42:14.320Z,9.67
2019-05-15T06:43:14.298Z,9.71
2019-05-15T06:44:14.364Z,9.73
2019-05-15T06:45:14.256Z,9.85
2019-05-15T06:46:14.367Z,9.80
2019-05-15T06:47:14.257Z,9.95
2019-05-15T06:48:14.311Z,10.04
2019-05-15T06:49:14.210Z,10.04
2019-05-15T06:50:14.205Z,10.13
2019-05-15T06:51:14.183Z,10.11
2019-05-15T06:52:14.187Z,10.13
2019-05-15T06:53:14.230Z,10.22
2019-05-15T06:54:14.157Z,10.20
2019-05-15T06:55:14.157Z,10.18
2019-05-15T06:56:14.154Z,10.31
2019-05-15T06:57:14.134Z,10.29
2019-05-15T06:58:14.165Z,10.36
2019-05-15T06:59:14.102Z,10.42
2019-05-15T07:00:14.099Z,10.44
2019-05-15T07:01:14.079Z,10.57
2019-05-15T07:02:14.175Z,10.63
2019-05-15T07:03:21.391Z,10.68
2019-05-15T07:04:15.039Z,10.65
2019-05-15T07:05:14.103Z,10.66
2019-05-15T07:06:14.017Z,10.78
2019-05-15T07:07:14.033Z,10.72
2019-05-15T07:08:14.039Z,10.78
2019-05-15T07:09:14.007Z,10.73
2019-05-15T07:10:13.978Z,10.78
2019-05-15T07:11:13.981Z,10.75
2019-05-15T07:12:13.962Z,10.69
2019-05-15T07:13:14.143Z,10.70
2019-05-15T07:14:13.937Z,10.84
2019-05-15T07:15:13.939Z,10.80
2019-05-15T07:16:13.907Z,10.83
2019-05-15T07:17:13.970Z,10.84
2019-05-15T07:18:13.926Z,10.87
2019-05-15T07:19:13.932Z,11.01
2019-05-15T07:20:13.912Z,11.01
2019-05-15T07:21:13.867Z,11.01
2019-05-15T07:22:13.847Z,10.99
2019-05-15T07:23:13.879Z,11.16
2019-05-15T07:24:13.826Z,11.13
2019-05-15T07:25:13.853Z,11.27
2019-05-15T07:26:13.822Z,11.17
2019-05-15T07:27:13.828Z,11.28
2019-05-15T07:28:13.808Z,11.21
2019-05-15T07:29:13.863Z,11.36
2019-05-15T07:30:13.755Z,11.38
2019-05-15T07:31:13.847Z,11.30
2019-05-15T07:32:13.745Z,11.26
2019-05-15T07:33:13.767Z,11.30
2019-05-15T07:34:13.753Z,11.38
2019-05-15T07:35:13.909Z,11.31
2019-05-15T07:36:13.695Z,11.44
2019-05-15T07:37:13.690Z,11.44
2019-05-15T07:38:13.677Z,11.45
2019-05-15T07:39:13.694Z,11.51
2019-05-15T07:40:13.660Z,11.53
2019-05-15T07:41:13.645Z,11.51
2019-05-15T07:42:13.647Z,11.60
2019-05-15T07:43:13.636Z,11.59
2019-05-15T07:44:13.633Z,11.62
2019-05-15T07:45:13.659Z,11.72
2019-05-15T07:46:13.585Z,11.70
2019-05-15T07:47:13.658Z,11.67
2019-05-15T07:48:13.582Z,11.70
2019-05-15T07:49:13.606Z,11.74
2019-05-15T07:50:13.548Z,11.75
2019-05-15T07:51:13.558Z,11.79
2019-05-15T07:52:13.520Z,11.88
2019-05-15T07:53:13.514Z,11.98
2019-05-15T07:54:13.534Z,11.87
2019-05-15T07:55:13.547Z,12.05
2019-05-15T07:56:13.484Z,11.97
2019-05-15T07:57:13.473Z,12.03
2019-05-15T07:58:13.462Z,12.00
2019-05-15T07:59:13.471Z,12.11
2019-05-15T08:00:13.470Z,12.21
2019-05-15T08:01:13.447Z,12.26
2019-05-15T08:02:13.409Z,12.33
2019-05-15T08:03:13.463Z,12.34
2019-05-15T08:04:24.690Z,12.33
2019-05-15T08:05:14.403Z,12.49
2019-05-15T08:06:13.380Z,12.54
2019-05-15T08:07:13.357Z,12.56
2019-05-15T08:08:13.349Z,12.48
2019-05-15T08:09:13.345Z,12.58
2019-05-15T08:10:13.362Z,12.73
2019-05-15T08:11:21.964Z,12.74
2019-05-15T08:12:14.310Z,12.80
2019-05-15T08:13:13.313Z,12.77
2019-05-15T08:14:13.298Z,12.71
2019-05-15T08:15:13.300Z,12.70
2019-05-15T08:16:13.285Z,12.63
2019-05-15T08:17:13.364Z,12.58
2019-05-15T08:18:13.234Z,12.71
2019-05-15T08:19:13.289Z,12.70
2019-05-15T08:20:13.236Z,12.79
2019-05-15T08:21:13.216Z,12.87
2019-05-15T08:22:15.123Z,12.94
2019-05-15T08:23:13.205Z,12.98
2019-05-15T08:24:13.172Z,12.94
2019-05-15T08:25:26.686Z,12.95
2019-05-15T08:26:14.181Z,12.79
2019-05-15T08:27:13.158Z,12.98
2019-05-15T08:28:13.130Z,12.91
2019-05-15T08:29:13.247Z,12.91
2019-05-15T08:30:13.146Z,12.89
2019-05-15T08:31:13.185Z,12.96
2019-05-15T08:32:13.115Z,12.99
2019-05-15T08:33:13.200Z,13.13
2019-05-15T08:34:16.262Z,13.04
2019-05-15T08:35:13.174Z,13.04
2019-05-15T08:36:13.072Z,13.01
2019-05-15T08:37:13.039Z,13.06
2019-05-15T08:38:14.377Z,13.04
2019-05-15T08:39:13.019Z,12.99
2019-05-15T08:40:13.096Z,13.01
2019-05-15T08:41:15.494Z,13.06
2019-05-15T08:42:12.998Z,12.98
2019-05-15T08:43:12.978Z,13.09
2019-05-15T08:44:12.969Z,13.10
2019-05-15T08:45:12.995Z,13.21
2019-05-15T08:46:12.970Z,13.31
2019-05-15T08:47:13.066Z,13.35
2019-05-15T08:48:12.925Z,13.31
2019-05-15T08:49:12.916Z,13.59
2019-05-15T08:50:12.901Z,13.61
2019-05-15T08:51:12.918Z,13.72
2019-05-15T08:52:12.884Z,13.80
2019-05-15T08:53:12.874Z,13.80
2019-05-15T08:54:12.858Z,13.87
2019-05-15T08:55:12.857Z,13.96
2019-05-15T08:56:14.755Z,14.02
2019-05-15T08:57:12.831Z,14.02
2019-05-15T08:58:14.098Z,14.09
2019-05-15T08:59:12.830Z,14.17
2019-05-15T09:00:12.795Z,14.09
2019-05-15T09:01:13.288Z,14.16
2019-05-15T09:02:12.790Z,14.34
2019-05-15T09:03:12.861Z,14.35
2019-05-15T09:04:26.606Z,14.38
2019-05-15T09:05:13.722Z,14.45
2019-05-15T09:06:12.766Z,14.21
2019-05-15T09:07:12.741Z,14.24
2019-05-15T09:08:12.696Z,14.26
2019-05-15T09:09:12.686Z,14.31
2019-05-15T09:10:12.680Z,14.38
2019-05-15T09:11:12.711Z,14.38
2019-05-15T09:12:12.655Z,14.36
2019-05-15T09:13:12.642Z,14.26
2019-05-15T09:14:12.676Z,14.38
2019-05-15T09:15:12.619Z,14.39
2019-05-15T09:16:12.655Z,14.38
2019-05-15T09:17:12.644Z,14.45
2019-05-15T09:18:16.144Z,14.46
2019-05-15T09:19:12.572Z,14.48
2019-05-15T09:20:12.593Z,14.59
2019-05-15T09:21:12.569Z,14.61
2019-05-15T09:22:12.593Z,14.78
2019-05-15T09:23:12.538Z,14.69
2019-05-15T09:24:12.523Z,14.72
2019-05-15T09:25:12.510Z,14.82
2019-05-15T09:26:12.510Z,14.74
2019-05-15T09:27:12.528Z,14.69
2019-05-15T09:28:12.522Z,14.64
2019-05-15T09:29:12.478Z,14.59
2019-05-15T09:30:12.533Z,14.71
2019-05-15T09:31:12.445Z,14.74
2019-05-15T09:32:12.726Z,14.83
2019-05-15T09:33:12.489Z,14.82
2019-05-15T09:34:12.481Z,14.64
2019-05-15T09:35:12.400Z,14.64
2019-05-15T09:36:12.403Z,14.72
2019-05-15T09:37:12.394Z,14.87
2019-05-15T09:38:12.412Z,14.91
2019-05-15T09:39:13.506Z,15.20
2019-05-15T09:40:12.357Z,15.30
2019-05-15T09:41:12.328Z,15.41
2019-05-15T09:42:12.330Z,15.51
2019-05-15T09:43:12.323Z,15.55
2019-05-15T09:44:12.348Z,15.53
2019-05-15T09:45:12.304Z,15.55
2019-05-15T09:46:12.346Z,15.64
2019-05-15T09:47:12.278Z,15.71
2019-05-15T09:48:14.743Z,15.74
2019-05-15T09:49:12.281Z,15.70
2019-05-15T09:50:12.252Z,15.76
2019-05-15T09:51:12.225Z,15.78
2019-05-15T09:52:12.224Z,15.80
2019-05-15T09:53:12.210Z,15.73
2019-05-15T09:54:12.230Z,15.76
2019-05-15T09:55:12.213Z,15.77
2019-05-15T09:56:12.185Z,15.76
2019-05-15T09:57:12.168Z,15.91
2019-05-15T09:58:12.164Z,15.85
2019-05-15T09:59:12.166Z,15.81
2019-05-15T10:00:12.243Z,15.86
2019-05-15T10:01:12.122Z,15.91
2019-05-15T10:02:12.145Z,15.93
2019-05-15T10:03:12.107Z,15.96
2019-05-15T10:04:12.119Z,15.98
2019-05-15T10:05:12.070Z,16.10
2019-05-15T10:06:12.069Z,16.22
2019-05-15T10:07:12.069Z,16.22
2019-05-15T10:08:12.066Z,16.17
2019-05-15T10:09:12.027Z,16.25
2019-05-15T10:10:12.035Z,16.30
2019-05-15T10:11:11.999Z,16.34
2019-05-15T10:12:11.998Z,16.44
2019-05-15T10:13:12.009Z,16.50
2019-05-15T10:14:11.971Z,16.50
2019-05-15T10:15:11.978Z,16.57
2019-05-15T10:16:11.954Z,16.51
2019-05-15T10:17:11.949Z,16.54
2019-05-15T10:18:12.090Z,16.65
2019-05-15T10:19:11.907Z,16.70
2019-05-15T10:20:12.122Z,16.91
2019-05-15T10:21:11.931Z,16.92
2019-05-15T10:22:11.901Z,16.82
2019-05-15T10:23:11.885Z,16.82
2019-05-15T10:24:11.970Z,16.73
2019-05-15T10:25:11.893Z,16.52
2019-05-15T10:26:14.241Z,16.59
2019-05-15T10:27:11.823Z,16.70
2019-05-15T10:28:15.118Z,16.82
2019-05-15T10:29:11.839Z,16.92
2019-05-15T10:30:11.917Z,16.81
2019-05-15T10:31:11.782Z,16.82
2019-05-15T10:32:11.780Z,16.66
2019-05-15T10:33:11.777Z,16.77
2019-05-15T10:34:11.892Z,16.82
2019-05-15T10:35:24.717Z,16.82
2019-05-15T10:36:12.735Z,17.02
2019-05-15T10:37:11.723Z,17.07
2019-05-15T10:38:11.720Z,17.07
2019-05-15T10:39:11.753Z,17.07
2019-05-15T10:40:11.681Z,17.07
2019-05-15T10:41:15.133Z,17.15
2019-05-15T10:42:11.672Z,17.15
2019-05-15T10:43:11.657Z,17.09
2019-05-15T10:44:11.681Z,17.24
2019-05-15T10:45:11.637Z,17.39
2019-05-15T10:46:13.034Z,17.42
2019-05-15T10:47:11.636Z,17.36
2019-05-15T10:48:11.620Z,17.25
2019-05-15T10:49:11.648Z,17.06
2019-05-15T10:50:11.626Z,16.98
2019-05-15T10:51:11.582Z,16.96
2019-05-15T10:52:11.639Z,17.00
2019-05-15T10:53:11.557Z,17.05
2019-05-15T10:54:11.559Z,16.91
2019-05-15T10:55:11.553Z,17.02
2019-05-15T10:56:11.519Z,16.98
2019-05-15T10:57:11.613Z,17.02
2019-05-15T10:58:16.630Z,17.09
2019-05-15T10:59:12.542Z,17.20
2019-05-15T11:00:11.507Z,17.42
2019-05-15T11:01:11.659Z,17.43
2019-05-15T11:02:11.448Z,17.43
2019-05-15T11:03:11.552Z,17.55
2019-05-15T11:04:11.438Z,17.58
2019-05-15T11:05:11.542Z,17.70
2019-05-15T11:06:11.497Z,17.86
2019-05-15T11:07:11.573Z,17.91
2019-05-15T11:08:11.378Z,18.01
2019-05-15T11:09:11.592Z,17.95
2019-05-15T11:10:11.521Z,17.96
2019-05-15T11:11:11.419Z,17.98
2019-05-15T11:12:11.352Z,17.87
2019-05-15T11:13:11.408Z,18.01
2019-05-15T11:14:11.336Z,17.98
2019-05-15T11:15:11.575Z,17.89
2019-05-15T11:16:11.303Z,17.95
2019-05-15T11:17:11.335Z,17.86
2019-05-15T11:18:11.276Z,17.89
2019-05-15T11:19:11.351Z,17.96
2019-05-15T11:20:11.278Z,18.02
2019-05-15T11:21:11.260Z,17.98
2019-05-15T11:22:11.240Z,18.02
2019-05-15T11:23:11.283Z,18.23
2019-05-15T11:24:11.232Z,18.21
2019-05-15T11:25:12.253Z,18.14
2019-05-15T11:26:11.181Z,18.14
2019-05-15T11:27:11.311Z,18.13
2019-05-15T11:28:11.178Z,17.98
2019-05-15T11:29:11.240Z,18.10
2019-05-15T11:30:11.191Z,18.13
2019-05-15T11:31:11.266Z,18.14
2019-05-15T11:32:11.116Z,18.21
2019-05-15T11:33:11.139Z,18.05
2019-05-15T11:34:11.100Z,18.02
2019-05-15T11:35:11.155Z,18.26
2019-05-15T11:36:11.128Z,18.32
2019-05-15T11:37:11.188Z,18.41
2019-05-15T11:38:11.085Z,18.38
2019-05-15T11:39:11.084Z,18.38
2019-05-15T11:40:11.487Z,18.38
2019-05-15T11:41:11.117Z,18.47
2019-05-15T11:42:11.079Z,18.59
2019-05-15T11:43:11.112Z,18.65
2019-05-15T11:44:10.991Z,18.71
2019-05-15T11:45:11.026Z,18.47
2019-05-15T11:46:11.002Z,18.47
2019-05-15T11:47:11.083Z,18.53
2019-05-15T11:48:10.942Z,18.60
2019-05-15T11:49:11.041Z,18.57
2019-05-15T11:50:10.932Z,18.71
2019-05-15T11:51:10.969Z,18.78
2019-05-15T11:52:10.905Z,18.72
2019-05-15T11:53:10.970Z,18.60
2019-05-15T11:54:10.876Z,18.50
2019-05-15T11:55:11.007Z,18.44
2019-05-15T11:56:10.902Z,18.34
2019-05-15T11:57:10.953Z,18.38
2019-05-15T11:58:10.834Z,18.41
2019-05-15T11:59:10.946Z,18.42
2019-05-15T12:00:17.186Z,18.38
2019-05-15T12:01:11.862Z,18.34
2019-05-15T12:02:10.847Z,18.36
2019-05-15T12:03:10.790Z,18.36
2019-05-15T12:04:25.429Z,18.46
2019-05-15T12:05:11.767Z,18.54
2019-05-15T12:06:18.552Z,18.59
2019-05-15T12:07:11.805Z,18.57
2019-05-15T12:08:12.652Z,18.65
2019-05-15T12:09:10.735Z,18.79
2019-05-15T12:10:11.129Z,18.78
2019-05-15T12:11:27.023Z,18.76
2019-05-15T12:12:12.466Z,18.83
2019-05-15T12:13:10.707Z,18.97
2019-05-15T12:14:10.679Z,18.75
2019-05-15T12:15:10.719Z,18.69
2019-05-15T12:16:10.654Z,18.78
2019-05-15T12:17:15.231Z,18.83
2019-05-15T12:18:10.622Z,18.87
2019-05-15T12:19:17.030Z,18.76
2019-05-15T12:20:11.616Z,18.83
2019-05-15T12:21:11.071Z,19.01
2019-05-15T12:22:10.650Z,19.12
2019-05-15T12:23:11.095Z,19.09
2019-05-15T12:24:10.691Z,19.05
2019-05-15T12:25:10.683Z,19.02
2019-05-15T12:26:10.539Z,19.15
2019-05-15T12:27:17.861Z,19.16
2019-05-15T12:28:11.542Z,19.30
2019-05-15T12:29:10.613Z,19.38
2019-05-15T12:30:10.498Z,19.45
2019-05-15T12:31:10.523Z,19.35
2019-05-15T12:32:25.166Z,19.24
2019-05-15T12:33:11.567Z,19.34
2019-05-15T12:34:10.710Z,19.17
2019-05-15T12:35:10.443Z,18.66
2019-05-15T12:36:11.056Z,18.64
2019-05-15T12:37:10.445Z,18.19
2019-05-15T12:38:10.534Z,18.04
2019-05-15T12:39:13.641Z,18.11
2019-05-15T13:00:11.168Z,19.23
2019-05-15T13:01:17.032Z,18.97
2019-05-15T13:02:11.298Z,18.96
2019-05-15T13:03:10.153Z,18.91
2019-05-15T13:04:10.271Z,18.83
2019-05-15T13:05:10.165Z,18.99
2019-05-15T13:06:10.148Z,18.99
2019-05-15T13:07:12.725Z,18.90
2019-05-15T13:08:10.207Z,18.94
2019-05-15T13:09:10.071Z,19.02
2019-05-15T13:10:10.181Z,19.17
2019-05-15T13:11:14.959Z,19.27
2019-05-15T13:12:11.117Z,19.25
2019-05-15T13:13:10.141Z,19.28
2019-05-15T13:14:10.109Z,19.23
2019-05-15T13:15:10.030Z,19.32
2019-05-15T13:16:10.022Z,19.46
2019-05-15T13:17:09.980Z,19.27
2019-05-15T13:18:13.761Z,19.50
2019-05-15T13:19:09.968Z,19.64
2019-05-15T13:20:10.070Z,19.71
2019-05-15T13:21:09.943Z,19.82
2019-05-15T13:22:17.604Z,19.87
2019-05-15T13:23:10.979Z,19.68
2019-05-15T13:24:10.008Z,19.32
2019-05-15T13:25:09.891Z,19.10
2019-05-15T13:26:23.035Z,18.93
2019-05-15T13:27:10.898Z,18.79
2019-05-15T13:28:09.901Z,18.71
2019-05-15T13:29:09.893Z,18.59
2019-05-15T13:30:09.929Z,18.76
2019-05-15T13:31:09.834Z,18.87
2019-05-15T13:32:09.934Z,18.99
2019-05-15T13:33:10.482Z,19.15
2019-05-15T13:34:09.877Z,19.09
2019-05-15T13:35:10.349Z,18.78
2019-05-15T13:36:09.846Z,18.42
2019-05-15T13:37:09.753Z,18.16
2019-05-15T13:38:10.385Z,18.36
2019-05-15T13:39:09.784Z,18.59
2019-05-15T13:40:09.804Z,18.66
2019-05-15T13:41:09.720Z,18.66
2019-05-15T13:42:09.790Z,18.62
2019-05-15T13:43:09.684Z,18.64
2019-05-15T13:44:09.700Z,18.78
2019-05-15T13:45:13.201Z,18.86
2019-05-15T13:46:09.715Z,18.74
2019-05-15T13:47:09.637Z,18.62